sensor_id;sensor_type;location;lat;lon;timestamp;P1;durP1;ratioP1;P2;durP2;ratioP2
19388;SDS011;9830;41.876;23.474;2023-11-21T00:02:02;0.13;;;0.13;;
19388;SDS011;9830;41.876;23.474;2023-11-21T00:04:29;0.07;;;0.07;;
19388;SDS011;9830;41.876;23.474;2023-11-21T00:06:55;2.10;;;0.80;;
19388;SDS011;9830;41.876;23.474;2023-11-21T00:09:20;0.87;;;0.87;;
19388;SDS011;9830;41.876;23.474;2023-11-21T00:11:46;1.03;;;0.40;;
19388;SDS011;9830;41.876;23.474;2023-11-21T00:14:12;0.40;;;0.40;;
19388;SDS011;9830;41.876;23.474;2023-11-21T00:16:40;0.00;;;0.00;;
19388;SDS011;9830;41.876;23.474;2023-11-21T00:19:06;0.40;;;0.40;;
19388;SDS011;9830;41.876;23.474;2023-11-21T00:21:31;0.00;;;0.00;;
19388;SDS011;9830;41.876;23.474;2023-11-21T00:23:57;0.20;;;0.20;;
19388;SDS011;9830;41.876;23.474;2023-11-21T00:26:23;0.50;;;0.17;;
19388;SDS011;9830;41.876;23.474;2023-11-21T00:28:49;0.20;;;0.20;;
19388;SDS011;9830;41.876;23.474;2023-11-21T00:31:15;0.10;;;0.10;;
19388;SDS011;9830;41.876;23.474;2023-11-21T00:33:41;0.47;;;0.47;;
19388;SDS011;9830;41.876;23.474;2023-11-21T00:36:08;0.40;;;0.40;;
19388;SDS011;9830;41.876;23.474;2023-11-21T00:38:35;0.10;;;0.10;;
19388;SDS011;9830;41.876;23.474;2023-11-21T00:41:01;0.43;;;0.20;;
19388;SDS011;9830;41.876;23.474;2023-11-21T00:43:28;0.00;;;0.00;;
19388;SDS011;9830;41.876;23.474;2023-11-21T00:45:53;0.07;;;0.07;;
19388;SDS011;9830;41.876;23.474;2023-11-21T00:48:19;0.20;;;0.20;;
19388;SDS011;9830;41.876;23.474;2023-11-21T00:50:45;0.33;;;0.23;;
19388;SDS011;9830;41.876;23.474;2023-11-21T00:53:11;0.20;;;0.20;;
19388;SDS011;9830;41.876;23.474;2023-11-21T00:55:37;0.23;;;0.23;;
19388;SDS011;9830;41.876;23.474;2023-11-21T00:58:05;1.23;;;0.77;;
19388;SDS011;9830;41.876;23.474;2023-11-21T01:00:32;2.53;;;0.77;;
19388;SDS011;9830;41.876;23.474;2023-11-21T01:03:00;2.17;;;0.60;;
19388;SDS011;9830;41.876;23.474;2023-11-21T01:05:27;0.30;;;0.30;;
19388;SDS011;9830;41.876;23.474;2023-11-21T01:07:53;0.00;;;0.00;;
19388;SDS011;9830;41.876;23.474;2023-11-21T01:10:18;0.23;;;0.23;;
19388;SDS011;9830;41.876;23.474;2023-11-21T01:12:44;0.00;;;0.00;;
19388;SDS011;9830;41.876;23.474;2023-11-21T01:15:10;0.00;;;0.00;;
19388;SDS011;9830;41.876;23.474;2023-11-21T01:17:37;0.90;;;0.90;;
19388;SDS011;9830;41.876;23.474;2023-11-21T01:20:03;2.13;;;0.40;;
19388;SDS011;9830;41.876;23.474;2023-11-21T01:22:37;0.00;;;0.00;;
19388;SDS011;9830;41.876;23.474;2023-11-21T01:25:03;0.43;;;0.33;;
19388;SDS011;9830;41.876;23.474;2023-11-21T01:27:31;0.00;;;0.00;;
19388;SDS011;9830;41.876;23.474;2023-11-21T01:29:57;0.20;;;0.20;;
19388;SDS011;9830;41.876;23.474;2023-11-21T01:32:23;0.47;;;0.47;;
19388;SDS011;9830;41.876;23.474;2023-11-21T01:34:50;0.00;;;0.00;;
19388;SDS011;9830;41.876;23.474;2023-11-21T01:37:16;0.20;;;0.20;;
19388;SDS011;9830;41.876;23.474;2023-11-21T01:39:42;0.20;;;0.20;;
19388;SDS011;9830;41.876;23.474;2023-11-21T01:42:09;0.07;;;0.07;;
19388;SDS011;9830;41.876;23.474;2023-11-21T01:44:36;0.40;;;0.40;;
19388;SDS011;9830;41.876;23.474;2023-11-21T01:47:01;0.33;;;0.33;;
19388;SDS011;9830;41.876;23.474;2023-11-21T01:49:30;0.70;;;0.70;;
19388;SDS011;9830;41.876;23.474;2023-11-21T01:51:58;0.17;;;0.17;;
19388;SDS011;9830;41.876;23.474;2023-11-21T01:54:24;0.63;;;0.63;;
19388;SDS011;9830;41.876;23.474;2023-11-21T01:56:51;1.23;;;1.13;;
19388;SDS011;9830;41.876;23.474;2023-11-21T01:59:20;0.10;;;0.10;;
19388;SDS011;9830;41.876;23.474;2023-11-21T02:01:47;0.43;;;0.30;;
19388;SDS011;9830;41.876;23.474;2023-11-21T02:04:13;1.60;;;0.73;;
19388;SDS011;9830;41.876;23.474;2023-11-21T02:06:39;0.73;;;0.30;;
19388;SDS011;9830;41.876;23.474;2023-11-21T02:09:04;0.20;;;0.20;;
19388;SDS011;9830;41.876;23.474;2023-11-21T02:11:30;0.10;;;0.10;;
19388;SDS011;9830;41.876;23.474;2023-11-21T02:13:58;1.07;;;0.77;;
19388;SDS011;9830;41.876;23.474;2023-11-21T02:16:25;0.00;;;0.00;;
19388;SDS011;9830;41.876;23.474;2023-11-21T02:18:52;2.10;;;0.63;;
19388;SDS011;9830;41.876;23.474;2023-11-21T02:21:18;0.00;;;0.00;;
19388;SDS011;9830;41.876;23.474;2023-11-21T02:23:44;0.00;;;0.00;;
19388;SDS011;9830;41.876;23.474;2023-11-21T02:26:11;0.00;;;0.00;;
19388;SDS011;9830;41.876;23.474;2023-11-21T02:28:38;1.20;;;0.50;;
19388;SDS011;9830;41.876;23.474;2023-11-21T02:31:05;0.30;;;0.30;;
19388;SDS011;9830;41.876;23.474;2023-11-21T02:33:32;0.93;;;0.37;;
19388;SDS011;9830;41.876;23.474;2023-11-21T02:35:59;0.10;;;0.10;;
19388;SDS011;9830;41.876;23.474;2023-11-21T02:38:25;1.17;;;1.07;;
19388;SDS011;9830;41.876;23.474;2023-11-21T02:40:51;0.73;;;0.73;;
19388;SDS011;9830;41.876;23.474;2023-11-21T02:43:17;0.20;;;0.20;;
19388;SDS011;9830;41.876;23.474;2023-11-21T02:45:42;0.43;;;0.43;;
19388;SDS011;9830;41.876;23.474;2023-11-21T02:48:08;0.40;;;0.40;;
19388;SDS011;9830;41.876;23.474;2023-11-21T02:50:34;0.60;;;0.60;;
19388;SDS011;9830;41.876;23.474;2023-11-21T02:53:00;1.83;;;0.63;;
19388;SDS011;9830;41.876;23.474;2023-11-21T02:55:27;0.27;;;0.17;;
19388;SDS011;9830;41.876;23.474;2023-11-21T02:57:53;0.57;;;0.57;;
19388;SDS011;9830;41.876;23.474;2023-11-21T03:00:18;0.20;;;0.20;;
19388;SDS011;9830;41.876;23.474;2023-11-21T03:02:44;0.00;;;0.00;;
19388;SDS011;9830;41.876;23.474;2023-11-21T03:05:12;1.97;;;0.77;;
19388;SDS011;9830;41.876;23.474;2023-11-21T03:07:38;0.00;;;0.00;;
19388;SDS011;9830;41.876;23.474;2023-11-21T03:10:04;1.20;;;1.10;;
19388;SDS011;9830;41.876;23.474;2023-11-21T03:12:30;1.40;;;0.53;;
19388;SDS011;9830;41.876;23.474;2023-11-21T03:14:55;0.60;;;0.60;;
19388;SDS011;9830;41.876;23.474;2023-11-21T03:17:21;0.70;;;0.70;;
19388;SDS011;9830;41.876;23.474;2023-11-21T03:19:47;0.10;;;0.10;;
19388;SDS011;9830;41.876;23.474;2023-11-21T03:22:12;0.10;;;0.10;;
19388;SDS011;9830;41.876;23.474;2023-11-21T03:24:38;0.00;;;0.00;;
19388;SDS011;9830;41.876;23.474;2023-11-21T03:27:04;0.47;;;0.47;;
19388;SDS011;9830;41.876;23.474;2023-11-21T03:29:30;1.00;;;1.00;;
19388;SDS011;9830;41.876;23.474;2023-11-21T03:31:55;0.57;;;0.57;;
19388;SDS011;9830;41.876;23.474;2023-11-21T03:34:25;0.23;;;0.23;;
19388;SDS011;9830;41.876;23.474;2023-11-21T03:36:51;0.47;;;0.47;;
19388;SDS011;9830;41.876;23.474;2023-11-21T03:39:18;0.93;;;0.93;;
19388;SDS011;9830;41.876;23.474;2023-11-21T03:41:47;0.20;;;0.20;;
19388;SDS011;9830;41.876;23.474;2023-11-21T03:44:13;0.20;;;0.20;;
19388;SDS011;9830;41.876;23.474;2023-11-21T03:46:39;0.13;;;0.13;;
19388;SDS011;9830;41.876;23.474;2023-11-21T03:49:05;2.53;;;1.40;;
19388;SDS011;9830;41.876;23.474;2023-11-21T03:51:32;0.90;;;0.90;;
19388;SDS011;9830;41.876;23.474;2023-11-21T03:53:59;0.33;;;0.20;;
19388;SDS011;9830;41.876;23.474;2023-11-21T03:56:24;1.00;;;1.00;;
19388;SDS011;9830;41.876;23.474;2023-11-21T03:58:50;0.93;;;0.93;;
19388;SDS011;9830;41.876;23.474;2023-11-21T04:01:22;1.13;;;1.13;;
19388;SDS011;9830;41.876;23.474;2023-11-21T04:03:48;1.50;;;1.40;;
19388;SDS011;9830;41.876;23.474;2023-11-21T04:06:15;0.30;;;0.30;;
19388;SDS011;9830;41.876;23.474;2023-11-21T04:08:42;2.50;;;0.77;;
19388;SDS011;9830;41.876;23.474;2023-11-21T04:11:09;0.57;;;0.57;;
19388;SDS011;9830;41.876;23.474;2023-11-21T04:13:36;1.37;;;1.30;;
19388;SDS011;9830;41.876;23.474;2023-11-21T04:16:06;0.40;;;0.40;;
19388;SDS011;9830;41.876;23.474;2023-11-21T04:18:33;2.40;;;1.03;;
19388;SDS011;9830;41.876;23.474;2023-11-21T04:21:00;0.50;;;0.43;;
19388;SDS011;9830;41.876;23.474;2023-11-21T04:23:28;2.57;;;2.37;;
19388;SDS011;9830;41.876;23.474;2023-11-21T04:25:55;0.57;;;0.57;;
19388;SDS011;9830;41.876;23.474;2023-11-21T04:28:22;0.20;;;0.20;;
19388;SDS011;9830;41.876;23.474;2023-11-21T04:30:49;0.73;;;0.70;;
19388;SDS011;9830;41.876;23.474;2023-11-21T04:33:15;0.37;;;0.37;;
19388;SDS011;9830;41.876;23.474;2023-11-21T04:35:41;0.23;;;0.23;;
19388;SDS011;9830;41.876;23.474;2023-11-21T04:38:07;1.30;;;1.00;;
19388;SDS011;9830;41.876;23.474;2023-11-21T04:40:32;0.20;;;0.20;;
19388;SDS011;9830;41.876;23.474;2023-11-21T04:42:58;0.17;;;0.17;;
19388;SDS011;9830;41.876;23.474;2023-11-21T04:45:24;0.33;;;0.33;;
19388;SDS011;9830;41.876;23.474;2023-11-21T04:47:50;2.00;;;1.07;;
19388;SDS011;9830;41.876;23.474;2023-11-21T04:50:16;2.47;;;1.67;;
19388;SDS011;9830;41.876;23.474;2023-11-21T04:52:42;2.60;;;1.80;;
19388;SDS011;9830;41.876;23.474;2023-11-21T04:55:07;0.10;;;0.10;;
19388;SDS011;9830;41.876;23.474;2023-11-21T04:57:35;0.10;;;0.10;;
19388;SDS011;9830;41.876;23.474;2023-11-21T05:00:02;0.40;;;0.40;;
19388;SDS011;9830;41.876;23.474;2023-11-21T05:02:30;0.10;;;0.10;;
19388;SDS011;9830;41.876;23.474;2023-11-21T05:05:00;1.50;;;1.33;;
19388;SDS011;9830;41.876;23.474;2023-11-21T05:07:26;0.20;;;0.20;;
19388;SDS011;9830;41.876;23.474;2023-11-21T05:09:57;1.30;;;1.20;;
19388;SDS011;9830;41.876;23.474;2023-11-21T05:12:23;10.40;;;3.47;;
19388;SDS011;9830;41.876;23.474;2023-11-21T05:14:50;1.63;;;1.53;;
19388;SDS011;9830;41.876;23.474;2023-11-21T05:17:16;0.70;;;0.67;;
19388;SDS011;9830;41.876;23.474;2023-11-21T05:19:42;5.33;;;3.50;;
19388;SDS011;9830;41.876;23.474;2023-11-21T05:22:10;1.57;;;1.47;;
19388;SDS011;9830;41.876;23.474;2023-11-21T05:24:37;8.50;;;2.83;;
19388;SDS011;9830;41.876;23.474;2023-11-21T05:27:04;2.87;;;1.90;;
19388;SDS011;9830;41.876;23.474;2023-11-21T05:29:30;2.60;;;2.07;;
19388;SDS011;9830;41.876;23.474;2023-11-21T05:31:56;1.90;;;1.80;;
19388;SDS011;9830;41.876;23.474;2023-11-21T05:34:21;0.23;;;0.23;;
19388;SDS011;9830;41.876;23.474;2023-11-21T05:36:49;0.87;;;0.53;;
19388;SDS011;9830;41.876;23.474;2023-11-21T05:39:15;0.60;;;0.60;;
19388;SDS011;9830;41.876;23.474;2023-11-21T05:41:42;1.70;;;1.20;;
19388;SDS011;9830;41.876;23.474;2023-11-21T05:44:08;1.13;;;1.03;;
19388;SDS011;9830;41.876;23.474;2023-11-21T05:46:34;2.03;;;1.83;;
19388;SDS011;9830;41.876;23.474;2023-11-21T05:49:00;0.87;;;0.67;;
19388;SDS011;9830;41.876;23.474;2023-11-21T05:51:25;6.30;;;2.70;;
19388;SDS011;9830;41.876;23.474;2023-11-21T05:53:51;1.20;;;1.20;;
19388;SDS011;9830;41.876;23.474;2023-11-21T05:56:17;0.13;;;0.13;;
19388;SDS011;9830;41.876;23.474;2023-11-21T05:58:43;1.00;;;1.00;;
19388;SDS011;9830;41.876;23.474;2023-11-21T06:01:08;5.53;;;2.30;;
19388;SDS011;9830;41.876;23.474;2023-11-21T06:03:37;1.17;;;1.07;;
19388;SDS011;9830;41.876;23.474;2023-11-21T06:06:04;1.40;;;1.30;;
19388;SDS011;9830;41.876;23.474;2023-11-21T06:08:30;2.00;;;1.90;;
19388;SDS011;9830;41.876;23.474;2023-11-21T06:10:55;2.93;;;1.50;;
19388;SDS011;9830;41.876;23.474;2023-11-21T06:13:21;5.93;;;2.73;;
19388;SDS011;9830;41.876;23.474;2023-11-21T06:15:49;3.83;;;3.53;;
19388;SDS011;9830;41.876;23.474;2023-11-21T06:18:18;1.77;;;1.67;;
19388;SDS011;9830;41.876;23.474;2023-11-21T06:20:46;5.37;;;3.43;;
19388;SDS011;9830;41.876;23.474;2023-11-21T06:23:12;6.37;;;2.10;;
19388;SDS011;9830;41.876;23.474;2023-11-21T06:25:39;0.57;;;0.57;;
19388;SDS011;9830;41.876;23.474;2023-11-21T06:28:05;4.87;;;3.30;;
19388;SDS011;9830;41.876;23.474;2023-11-21T06:30:31;6.37;;;3.57;;
19388;SDS011;9830;41.876;23.474;2023-11-21T06:32:57;2.10;;;2.00;;
19388;SDS011;9830;41.876;23.474;2023-11-21T06:35:22;2.03;;;1.60;;
19388;SDS011;9830;41.876;23.474;2023-11-21T06:37:48;2.60;;;2.03;;
19388;SDS011;9830;41.876;23.474;2023-11-21T06:40:14;2.33;;;2.13;;
19388;SDS011;9830;41.876;23.474;2023-11-21T06:42:40;0.90;;;0.90;;
19388;SDS011;9830;41.876;23.474;2023-11-21T06:45:07;1.83;;;1.67;;
19388;SDS011;9830;41.876;23.474;2023-11-21T06:47:35;2.10;;;2.00;;
19388;SDS011;9830;41.876;23.474;2023-11-21T06:50:03;2.47;;;1.67;;
19388;SDS011;9830;41.876;23.474;2023-11-21T06:52:29;2.83;;;2.23;;
19388;SDS011;9830;41.876;23.474;2023-11-21T06:54:55;2.33;;;1.67;;
19388;SDS011;9830;41.876;23.474;2023-11-21T06:57:22;2.33;;;2.10;;
19388;SDS011;9830;41.876;23.474;2023-11-21T06:59:49;27.93;;;4.60;;
19388;SDS011;9830;41.876;23.474;2023-11-21T07:02:17;2.03;;;1.90;;
19388;SDS011;9830;41.876;23.474;2023-11-21T07:04:46;5.60;;;3.43;;
19388;SDS011;9830;41.876;23.474;2023-11-21T07:07:12;3.43;;;2.57;;
19388;SDS011;9830;41.876;23.474;2023-11-21T07:09:38;7.43;;;3.83;;
19388;SDS011;9830;41.876;23.474;2023-11-21T07:12:04;29.77;;;11.90;;
19388;SDS011;9830;41.876;23.474;2023-11-21T07:14:33;23.30;;;7.27;;
19388;SDS011;9830;41.876;23.474;2023-11-21T07:16:59;10.10;;;4.37;;
19388;SDS011;9830;41.876;23.474;2023-11-21T07:19:28;5.60;;;2.83;;
19388;SDS011;9830;41.876;23.474;2023-11-21T07:21:54;2.73;;;2.53;;
19388;SDS011;9830;41.876;23.474;2023-11-21T07:24:20;0.60;;;0.60;;
19388;SDS011;9830;41.876;23.474;2023-11-21T07:26:47;1.57;;;1.47;;
19388;SDS011;9830;41.876;23.474;2023-11-21T07:29:13;0.83;;;0.83;;
19388;SDS011;9830;41.876;23.474;2023-11-21T07:31:39;3.27;;;2.40;;
19388;SDS011;9830;41.876;23.474;2023-11-21T07:34:10;1.90;;;1.77;;
19388;SDS011;9830;41.876;23.474;2023-11-21T07:36:37;2.60;;;1.33;;
19388;SDS011;9830;41.876;23.474;2023-11-21T07:39:03;1.87;;;0.97;;
19388;SDS011;9830;41.876;23.474;2023-11-21T07:41:28;1.90;;;1.80;;
19388;SDS011;9830;41.876;23.474;2023-11-21T07:43:54;1.07;;;1.07;;
19388;SDS011;9830;41.876;23.474;2023-11-21T07:46:21;4.60;;;3.77;;
19388;SDS011;9830;41.876;23.474;2023-11-21T07:48:47;16.93;;;4.13;;
19388;SDS011;9830;41.876;23.474;2023-11-21T07:51:17;2.03;;;1.93;;
19388;SDS011;9830;41.876;23.474;2023-11-21T07:53:43;2.83;;;2.63;;
19388;SDS011;9830;41.876;23.474;2023-11-21T07:56:09;2.07;;;1.97;;
19388;SDS011;9830;41.876;23.474;2023-11-21T07:58:35;6.53;;;4.30;;
19388;SDS011;9830;41.876;23.474;2023-11-21T08:01:02;11.63;;;6.13;;
19388;SDS011;9830;41.876;23.474;2023-11-21T08:03:28;2.87;;;2.77;;
19388;SDS011;9830;41.876;23.474;2023-11-21T08:05:55;3.33;;;2.73;;
19388;SDS011;9830;41.876;23.474;2023-11-21T08:08:22;1.77;;;1.77;;
19388;SDS011;9830;41.876;23.474;2023-11-21T08:10:48;3.10;;;2.77;;
19388;SDS011;9830;41.876;23.474;2023-11-21T08:13:22;1.60;;;1.50;;
19388;SDS011;9830;41.876;23.474;2023-11-21T08:15:49;2.50;;;2.30;;
19388;SDS011;9830;41.876;23.474;2023-11-21T08:18:15;6.73;;;2.53;;
19388;SDS011;9830;41.876;23.474;2023-11-21T08:20:42;2.10;;;1.70;;
19388;SDS011;9830;41.876;23.474;2023-11-21T08:23:10;1.20;;;1.10;;
19388;SDS011;9830;41.876;23.474;2023-11-21T08:25:35;3.77;;;3.40;;
19388;SDS011;9830;41.876;23.474;2023-11-21T08:28:02;4.17;;;2.50;;
19388;SDS011;9830;41.876;23.474;2023-11-21T08:30:28;3.97;;;3.57;;
19388;SDS011;9830;41.876;23.474;2023-11-21T08:32:55;4.47;;;4.07;;
19388;SDS011;9830;41.876;23.474;2023-11-21T08:35:23;7.73;;;4.37;;
19388;SDS011;9830;41.876;23.474;2023-11-21T08:37:52;8.63;;;5.30;;
19388;SDS011;9830;41.876;23.474;2023-11-21T08:40:18;3.37;;;3.17;;
19388;SDS011;9830;41.876;23.474;2023-11-21T08:42:46;6.30;;;3.23;;
19388;SDS011;9830;41.876;23.474;2023-11-21T08:45:12;4.30;;;3.83;;
19388;SDS011;9830;41.876;23.474;2023-11-21T08:47:39;13.73;;;6.57;;
19388;SDS011;9830;41.876;23.474;2023-11-21T08:50:06;5.50;;;4.07;;
19388;SDS011;9830;41.876;23.474;2023-11-21T08:52:35;6.33;;;4.33;;
19388;SDS011;9830;41.876;23.474;2023-11-21T08:55:02;5.87;;;3.40;;
19388;SDS011;9830;41.876;23.474;2023-11-21T08:57:33;8.27;;;5.70;;
19388;SDS011;9830;41.876;23.474;2023-11-21T09:00:00;7.63;;;5.37;;
19388;SDS011;9830;41.876;23.474;2023-11-21T09:02:26;3.47;;;3.17;;
19388;SDS011;9830;41.876;23.474;2023-11-21T09:04:52;4.57;;;3.37;;
19388;SDS011;9830;41.876;23.474;2023-11-21T09:07:18;5.73;;;3.77;;
19388;SDS011;9830;41.876;23.474;2023-11-21T09:09:48;3.23;;;3.03;;
19388;SDS011;9830;41.876;23.474;2023-11-21T09:12:14;3.73;;;3.17;;
19388;SDS011;9830;41.876;23.474;2023-11-21T09:14:41;2.30;;;2.10;;
19388;SDS011;9830;41.876;23.474;2023-11-21T09:17:07;8.50;;;3.37;;
19388;SDS011;9830;41.876;23.474;2023-11-21T09:19:38;2.67;;;2.47;;
19388;SDS011;9830;41.876;23.474;2023-11-21T09:22:10;2.63;;;2.33;;
19388;SDS011;9830;41.876;23.474;2023-11-21T09:24:36;4.10;;;2.00;;
19388;SDS011;9830;41.876;23.474;2023-11-21T09:27:02;2.00;;;1.63;;
19388;SDS011;9830;41.876;23.474;2023-11-21T09:29:30;1.43;;;1.33;;
19388;SDS011;9830;41.876;23.474;2023-11-21T09:31:56;1.60;;;1.50;;
19388;SDS011;9830;41.876;23.474;2023-11-21T09:34:24;1.97;;;1.87;;
19388;SDS011;9830;41.876;23.474;2023-11-21T09:36:50;1.10;;;1.10;;
19388;SDS011;9830;41.876;23.474;2023-11-21T09:39:17;4.50;;;2.10;;
19388;SDS011;9830;41.876;23.474;2023-11-21T09:41:52;2.30;;;2.10;;
19388;SDS011;9830;41.876;23.474;2023-11-21T09:44:35;2.00;;;1.90;;
19388;SDS011;9830;41.876;23.474;2023-11-21T09:47:04;2.13;;;1.67;;
19388;SDS011;9830;41.876;23.474;2023-11-21T09:49:35;2.57;;;1.60;;
19388;SDS011;9830;41.876;23.474;2023-11-21T09:52:03;1.70;;;1.37;;
19388;SDS011;9830;41.876;23.474;2023-11-21T09:54:31;6.70;;;2.50;;
19388;SDS011;9830;41.876;23.474;2023-11-21T09:56:57;0.20;;;0.20;;
19388;SDS011;9830;41.876;23.474;2023-11-21T09:59:25;0.50;;;0.50;;
19388;SDS011;9830;41.876;23.474;2023-11-21T10:01:57;0.57;;;0.57;;
19388;SDS011;9830;41.876;23.474;2023-11-21T10:04:23;1.73;;;1.43;;
19388;SDS011;9830;41.876;23.474;2023-11-21T10:06:49;0.90;;;0.90;;
19388;SDS011;9830;41.876;23.474;2023-11-21T10:09:17;1.63;;;1.53;;
19388;SDS011;9830;41.876;23.474;2023-11-21T10:11:45;1.17;;;1.17;;
19388;SDS011;9830;41.876;23.474;2023-11-21T10:14:16;0.40;;;0.40;;
19388;SDS011;9830;41.876;23.474;2023-11-21T10:16:46;0.63;;;0.63;;
19388;SDS011;9830;41.876;23.474;2023-11-21T10:19:14;1.17;;;1.07;;
19388;SDS011;9830;41.876;23.474;2023-11-21T10:21:41;2.63;;;2.40;;
19388;SDS011;9830;41.876;23.474;2023-11-21T10:24:07;2.20;;;1.67;;
19388;SDS011;9830;41.876;23.474;2023-11-21T10:26:33;4.37;;;1.30;;
19388;SDS011;9830;41.876;23.474;2023-11-21T10:28:59;0.73;;;0.73;;
19388;SDS011;9830;41.876;23.474;2023-11-21T10:31:30;1.43;;;1.33;;
19388;SDS011;9830;41.876;23.474;2023-11-21T10:34:18;0.67;;;0.67;;
19388;SDS011;9830;41.876;23.474;2023-11-21T10:36:45;0.77;;;0.77;;
19388;SDS011;9830;41.876;23.474;2023-11-21T10:39:16;1.30;;;1.20;;
19388;SDS011;9830;41.876;23.474;2023-11-21T10:41:44;2.33;;;1.10;;
19388;SDS011;9830;41.876;23.474;2023-11-21T10:44:11;1.03;;;0.73;;
19388;SDS011;9830;41.876;23.474;2023-11-21T10:46:39;2.27;;;1.90;;
19388;SDS011;9830;41.876;23.474;2023-11-21T10:49:07;2.40;;;1.53;;
19388;SDS011;9830;41.876;23.474;2023-11-21T10:51:34;12.73;;;3.13;;
19388;SDS011;9830;41.876;23.474;2023-11-21T10:54:00;3.20;;;1.83;;
19388;SDS011;9830;41.876;23.474;2023-11-21T10:56:26;2.43;;;2.33;;
19388;SDS011;9830;41.876;23.474;2023-11-21T10:58:55;4.27;;;2.47;;
19388;SDS011;9830;41.876;23.474;2023-11-21T11:01:22;0.63;;;0.63;;
19388;SDS011;9830;41.876;23.474;2023-11-21T11:03:54;2.37;;;2.17;;
19388;SDS011;9830;41.876;23.474;2023-11-21T11:06:21;2.10;;;2.00;;
19388;SDS011;9830;41.876;23.474;2023-11-21T11:08:51;0.90;;;0.90;;
19388;SDS011;9830;41.876;23.474;2023-11-21T11:11:17;4.40;;;4.03;;
19388;SDS011;9830;41.876;23.474;2023-11-21T11:13:43;3.87;;;3.53;;
19388;SDS011;9830;41.876;23.474;2023-11-21T11:16:11;7.60;;;3.77;;
19388;SDS011;9830;41.876;23.474;2023-11-21T11:18:42;2.47;;;2.30;;
19388;SDS011;9830;41.876;23.474;2023-11-21T11:21:19;3.03;;;2.77;;
19388;SDS011;9830;41.876;23.474;2023-11-21T11:27:19;2.00;;;1.53;;
19388;SDS011;9830;41.876;23.474;2023-11-21T11:29:56;2.20;;;2.00;;
19388;SDS011;9830;41.876;23.474;2023-11-21T11:38:07;1.27;;;1.23;;
19388;SDS011;9830;41.876;23.474;2023-11-21T11:40:40;1.60;;;1.50;;
19388;SDS011;9830;41.876;23.474;2023-11-21T11:43:07;3.23;;;2.83;;
19388;SDS011;9830;41.876;23.474;2023-11-21T11:45:33;2.73;;;2.17;;
19388;SDS011;9830;41.876;23.474;2023-11-21T11:48:06;1.27;;;1.27;;
19388;SDS011;9830;41.876;23.474;2023-11-21T11:50:32;1.53;;;1.43;;
19388;SDS011;9830;41.876;23.474;2023-11-21T11:53:12;1.33;;;1.33;;
19388;SDS011;9830;41.876;23.474;2023-11-21T11:55:39;6.63;;;2.13;;
19388;SDS011;9830;41.876;23.474;2023-11-21T11:58:07;1.07;;;1.07;;
19388;SDS011;9830;41.876;23.474;2023-11-21T12:00:33;1.10;;;1.10;;
19388;SDS011;9830;41.876;23.474;2023-11-21T12:03:03;1.83;;;1.23;;
19388;SDS011;9830;41.876;23.474;2023-11-21T12:05:31;5.40;;;3.07;;
19388;SDS011;9830;41.876;23.474;2023-11-21T12:07:59;1.27;;;1.27;;
19388;SDS011;9830;41.876;23.474;2023-11-21T12:10:28;1.73;;;1.20;;
19388;SDS011;9830;41.876;23.474;2023-11-21T12:13:05;8.67;;;1.73;;
19388;SDS011;9830;41.876;23.474;2023-11-21T12:15:35;1.47;;;1.37;;
19388;SDS011;9830;41.876;23.474;2023-11-21T12:18:02;0.87;;;0.80;;
19388;SDS011;9830;41.876;23.474;2023-11-21T12:20:29;3.50;;;1.43;;
19388;SDS011;9830;41.876;23.474;2023-11-21T12:22:57;0.40;;;0.40;;
19388;SDS011;9830;41.876;23.474;2023-11-21T12:25:27;1.33;;;1.23;;
19388;SDS011;9830;41.876;23.474;2023-11-21T12:27:54;3.60;;;1.53;;
19388;SDS011;9830;41.876;23.474;2023-11-21T12:30:22;1.03;;;1.00;;
19388;SDS011;9830;41.876;23.474;2023-11-21T12:32:50;4.27;;;1.23;;
19388;SDS011;9830;41.876;23.474;2023-11-21T12:35:17;0.60;;;0.60;;
19388;SDS011;9830;41.876;23.474;2023-11-21T12:37:45;2.47;;;1.20;;
19388;SDS011;9830;41.876;23.474;2023-11-21T12:40:14;0.27;;;0.27;;
19388;SDS011;9830;41.876;23.474;2023-11-21T12:42:42;0.90;;;0.90;;
19388;SDS011;9830;41.876;23.474;2023-11-21T12:47:41;3.03;;;1.63;;
19388;SDS011;9830;41.876;23.474;2023-11-21T12:50:20;0.50;;;0.50;;
19388;SDS011;9830;41.876;23.474;2023-11-21T12:52:53;2.23;;;2.03;;
19388;SDS011;9830;41.876;23.474;2023-11-21T12:55:23;5.93;;;1.23;;
19388;SDS011;9830;41.876;23.474;2023-11-21T12:57:49;1.53;;;1.00;;
19388;SDS011;9830;41.876;23.474;2023-11-21T13:00:17;1.87;;;1.33;;
19388;SDS011;9830;41.876;23.474;2023-11-21T13:02:54;0.70;;;0.70;;
19388;SDS011;9830;41.876;23.474;2023-11-21T13:05:29;0.23;;;0.23;;
19388;SDS011;9830;41.876;23.474;2023-11-21T13:08:04;0.60;;;0.60;;
19388;SDS011;9830;41.876;23.474;2023-11-21T13:10:33;0.73;;;0.70;;
19388;SDS011;9830;41.876;23.474;2023-11-21T13:13:04;12.77;;;2.87;;
19388;SDS011;9830;41.876;23.474;2023-11-21T13:15:33;2.60;;;1.40;;
19388;SDS011;9830;41.876;23.474;2023-11-21T13:18:01;0.73;;;0.67;;
19388;SDS011;9830;41.876;23.474;2023-11-21T13:20:28;2.80;;;2.00;;
19388;SDS011;9830;41.876;23.474;2023-11-21T13:22:55;1.23;;;1.10;;
19388;SDS011;9830;41.876;23.474;2023-11-21T13:25:24;0.87;;;0.87;;
19388;SDS011;9830;41.876;23.474;2023-11-21T13:27:55;1.50;;;1.33;;
19388;SDS011;9830;41.876;23.474;2023-11-21T13:30:28;1.53;;;1.50;;
19388;SDS011;9830;41.876;23.474;2023-11-21T13:33:01;3.27;;;2.97;;
19388;SDS011;9830;41.876;23.474;2023-11-21T13:35:28;1.53;;;1.27;;
19388;SDS011;9830;41.876;23.474;2023-11-21T13:38:03;1.87;;;1.77;;
19388;SDS011;9830;41.876;23.474;2023-11-21T13:40:31;1.83;;;1.43;;
19388;SDS011;9830;41.876;23.474;2023-11-21T13:43:00;1.33;;;1.23;;
19388;SDS011;9830;41.876;23.474;2023-11-21T13:45:29;0.93;;;0.93;;
19388;SDS011;9830;41.876;23.474;2023-11-21T13:47:56;7.30;;;2.13;;
19388;SDS011;9830;41.876;23.474;2023-11-21T13:50:26;1.00;;;0.90;;
19388;SDS011;9830;41.876;23.474;2023-11-21T13:52:58;0.53;;;0.53;;
19388;SDS011;9830;41.876;23.474;2023-11-21T13:55:34;3.30;;;1.00;;
19388;SDS011;9830;41.876;23.474;2023-11-21T13:58:01;2.53;;;1.23;;
19388;SDS011;9830;41.876;23.474;2023-11-21T14:00:27;0.77;;;0.77;;
19388;SDS011;9830;41.876;23.474;2023-11-21T14:03:08;0.80;;;0.47;;
19388;SDS011;9830;41.876;23.474;2023-11-21T14:05:42;1.03;;;1.00;;
19388;SDS011;9830;41.876;23.474;2023-11-21T14:08:09;3.33;;;2.33;;
19388;SDS011;9830;41.876;23.474;2023-11-21T14:10:37;2.57;;;1.77;;
19388;SDS011;9830;41.876;23.474;2023-11-21T14:13:08;1.97;;;1.40;;
19388;SDS011;9830;41.876;23.474;2023-11-21T14:15:38;6.07;;;1.27;;
19388;SDS011;9830;41.876;23.474;2023-11-21T14:18:08;1.90;;;1.43;;
19388;SDS011;9830;41.876;23.474;2023-11-21T14:20:39;0.80;;;0.80;;
19388;SDS011;9830;41.876;23.474;2023-11-21T14:23:06;5.27;;;2.43;;
19388;SDS011;9830;41.876;23.474;2023-11-21T14:25:32;1.57;;;1.37;;
19388;SDS011;9830;41.876;23.474;2023-11-21T14:28:05;1.50;;;1.30;;
19388;SDS011;9830;41.876;23.474;2023-11-21T14:30:32;0.77;;;0.50;;
19388;SDS011;9830;41.876;23.474;2023-11-21T14:33:00;0.37;;;0.37;;
19388;SDS011;9830;41.876;23.474;2023-11-21T14:35:27;0.70;;;0.70;;
19388;SDS011;9830;41.876;23.474;2023-11-21T14:37:55;0.70;;;0.70;;
19388;SDS011;9830;41.876;23.474;2023-11-21T14:40:22;2.63;;;2.43;;
19388;SDS011;9830;41.876;23.474;2023-11-21T14:42:49;4.30;;;3.93;;
19388;SDS011;9830;41.876;23.474;2023-11-21T14:45:18;4.33;;;3.80;;
19388;SDS011;9830;41.876;23.474;2023-11-21T14:47:48;6.57;;;2.93;;
19388;SDS011;9830;41.876;23.474;2023-11-21T14:50:40;4.57;;;2.47;;
19388;SDS011;9830;41.876;23.474;2023-11-21T14:53:08;4.33;;;1.67;;
19388;SDS011;9830;41.876;23.474;2023-11-21T14:55:37;6.80;;;3.53;;
19388;SDS011;9830;41.876;23.474;2023-11-21T14:58:15;10.20;;;6.40;;
19388;SDS011;9830;41.876;23.474;2023-11-21T15:01:04;4.43;;;3.67;;
19388;SDS011;9830;41.876;23.474;2023-11-21T15:03:29;4.23;;;3.87;;